createdAt,value
2022-11-19T00:02:07.000Z,41.91
2022-11-19T00:04:36.516Z,42.12
2022-11-19T00:07:08.638Z,41.95
2022-11-19T00:09:36.937Z,41.89
2022-11-19T00:12:25.494Z,41.93
2022-11-19T00:14:55.539Z,41.85
2022-11-19T00:17:23.588Z,41.86
2022-11-19T00:19:53.006Z,41.87
2022-11-19T00:22:21.107Z,41.80
2022-11-19T00:24:49.144Z,41.85
2022-11-19T00:27:18.880Z,42.01
2022-11-19T00:29:47.582Z,41.84
2022-11-19T00:32:16.991Z,41.79
2022-11-19T00:34:45.011Z,41.79
2022-11-19T00:37:14.441Z,41.67
2022-11-19T00:39:42.593Z,41.70
2022-11-19T00:42:10.639Z,41.68
2022-11-19T00:44:38.629Z,41.66
2022-11-19T00:47:08.519Z,41.70
2022-11-19T00:49:36.604Z,41.75
2022-11-19T00:52:04.922Z,41.88
2022-11-19T00:54:34.542Z,41.70
2022-11-19T00:57:02.538Z,41.77
2022-11-19T00:59:30.568Z,41.59
2022-11-19T01:01:58.650Z,41.64
2022-11-19T01:04:26.939Z,41.54
2022-11-19T01:06:55.510Z,41.58
2022-11-19T01:09:24.864Z,41.67
2022-11-19T01:11:54.472Z,41.67
2022-11-19T01:14:22.555Z,41.58
2022-11-19T01:16:50.596Z,41.64
2022-11-19T01:19:18.867Z,41.51
2022-11-19T01:21:47.138Z,41.53
2022-11-19T01:24:15.544Z,41.49
2022-11-19T01:26:45.980Z,41.51
2022-11-19T01:29:15.867Z,41.48
2022-11-19T01:31:44.436Z,41.51
2022-11-19T01:34:12.601Z,41.63
2022-11-19T01:36:41.455Z,41.46
2022-11-19T01:39:09.484Z,41.49
2022-11-19T01:41:37.523Z,41.43
2022-11-19T01:44:07.940Z,41.47
2022-11-19T01:46:40.041Z,41.30
2022-11-19T01:49:13.771Z,41.42
2022-11-19T01:51:45.183Z,41.37
2022-11-19T01:54:22.032Z,41.27
2022-11-19T01:56:50.880Z,41.46
2022-11-19T01:59:20.912Z,41.50
2022-11-19T02:01:50.687Z,41.53
2022-11-19T02:04:20.456Z,41.21
2022-11-19T02:06:49.165Z,41.55
2022-11-19T02:09:19.105Z,41.38
2022-11-19T02:12:15.299Z,40.64
2022-11-19T02:14:57.901Z,41.26
2022-11-19T02:17:44.611Z,40.98
2022-11-19T02:20:36.781Z,40.89
2022-11-19T02:23:33.303Z,40.97
2022-11-19T02:26:21.058Z,41.29
2022-11-19T02:28:53.831Z,41.26
2022-11-19T02:31:30.327Z,41.20
2022-11-19T02:34:02.950Z,41.25
2022-11-19T02:36:38.995Z,41.09
2022-11-19T02:39:14.445Z,41.30
2022-11-19T02:41:50.489Z,41.12
2022-11-19T02:44:41.048Z,41.26
2022-11-19T02:47:14.017Z,41.37
2022-11-19T02:49:45.798Z,41.29
2022-11-19T02:52:16.438Z,41.32
2022-11-19T02:54:44.648Z,41.26
2022-11-19T02:57:14.414Z,41.29
2022-11-19T03:00:05.629Z,41.28
2022-11-19T03:02:57.977Z,41.14
2022-11-19T03:05:31.996Z,41.11
2022-11-19T03:08:00.415Z,41.12
2022-11-19T03:10:37.198Z,41.25
2022-11-19T03:13:27.344Z,41.06
2022-11-19T03:16:20.293Z,41.15
2022-11-19T03:18:56.611Z,41.14
2022-11-19T03:21:34.153Z,41.11
2022-11-19T03:24:06.622Z,41.06
2022-11-19T03:26:40.243Z,41.08
2022-11-19T03:29:12.542Z,41.06
2022-11-19T03:31:44.490Z,41.03
2022-11-19T03:34:20.243Z,40.98
2022-11-19T03:36:52.110Z,41.08
2022-11-19T03:39:22.606Z,40.87
2022-11-19T03:41:54.304Z,40.98
2022-11-19T03:44:28.467Z,40.95
2022-11-19T03:47:01.167Z,40.94
2022-11-19T03:49:38.536Z,41.01
2022-11-19T03:52:11.554Z,41.00
2022-11-19T03:54:41.470Z,40.99
2022-11-19T03:57:12.105Z,41.06
2022-11-19T03:59:40.261Z,41.03
2022-11-19T04:02:10.752Z,40.98
2022-11-19T04:04:40.351Z,40.91
2022-11-19T04:07:11.098Z,41.04
2022-11-19T04:09:39.910Z,40.98
2022-11-19T04:12:09.641Z,40.97
2022-11-19T04:14:38.675Z,40.92
2022-11-19T04:17:07.340Z,41.02
2022-11-19T04:19:35.456Z,40.90
2022-11-19T04:22:06.289Z,40.91
2022-11-19T04:24:34.485Z,40.96
2022-11-19T04:27:02.976Z,40.81
2022-11-19T04:29:31.059Z,40.79
2022-11-19T04:31:59.402Z,40.76
2022-11-19T04:34:29.211Z,40.76
2022-11-19T04:36:57.332Z,40.73
2022-11-19T04:39:28.034Z,40.83
2022-11-19T04:41:56.235Z,40.77
2022-11-19T04:44:24.356Z,40.88
2022-11-19T04:46:52.418Z,40.65
2022-11-19T04:49:20.706Z,40.76
2022-11-19T04:51:48.874Z,40.72
2022-11-19T04:54:16.984Z,40.68
2022-11-19T04:56:48.689Z,40.67
2022-11-19T04:59:18.421Z,40.67
2022-11-19T05:01:46.988Z,40.66
2022-11-19T05:04:15.304Z,40.65
2022-11-19T05:06:43.637Z,40.63
2022-11-19T05:09:11.988Z,40.66
2022-11-19T05:11:40.413Z,40.61
2022-11-19T05:14:10.138Z,40.61
2022-11-19T05:16:39.367Z,40.56
2022-11-19T05:19:09.512Z,40.62
2022-11-19T05:21:37.583Z,40.69
2022-11-19T05:24:08.039Z,40.65
2022-11-19T05:26:36.702Z,40.59
2022-11-19T05:29:04.839Z,40.63
2022-11-19T05:31:35.317Z,40.64
2022-11-19T05:34:03.414Z,40.52
2022-11-19T05:36:31.491Z,40.46
2022-11-19T05:38:59.589Z,40.45
2022-11-19T05:41:29.918Z,40.43
2022-11-19T05:43:59.646Z,40.53
2022-11-19T05:46:29.205Z,40.55
2022-11-19T05:48:58.676Z,40.48
2022-11-19T05:51:26.720Z,40.47
2022-11-19T05:53:54.811Z,40.74
2022-11-19T05:56:22.931Z,40.56
2022-11-19T05:58:50.900Z,40.61
2022-11-19T06:01:26.303Z,40.33
2022-11-19T06:03:54.686Z,40.54
2022-11-19T06:06:25.676Z,40.71
2022-11-19T06:08:54.992Z,40.44
2022-11-19T06:11:40.614Z,40.62
2022-11-19T06:14:09.072Z,40.47
2022-11-19T06:16:37.274Z,40.61
2022-11-19T06:19:05.293Z,40.24
2022-11-19T06:21:35.004Z,40.50
2022-11-19T06:24:03.079Z,40.40
2022-11-19T06:26:31.429Z,40.59
2022-11-19T06:28:59.647Z,40.49
2022-11-19T06:31:27.989Z,40.51
2022-11-19T06:33:56.227Z,40.43
2022-11-19T06:36:27.506Z,40.49
2022-11-19T06:38:57.353Z,40.44
2022-11-19T06:41:25.701Z,40.31
2022-11-19T06:43:54.095Z,40.33
2022-11-19T06:46:22.300Z,40.35
2022-11-19T06:48:50.942Z,40.39
2022-11-19T06:51:18.990Z,40.55
2022-11-19T06:53:47.032Z,40.36
2022-11-19T06:56:16.502Z,40.41
2022-11-19T06:58:44.519Z,40.34
2022-11-19T07:01:14.476Z,40.37
2022-11-19T07:03:42.829Z,40.17
2022-11-19T07:06:10.924Z,40.37
2022-11-19T07:08:39.528Z,40.29
2022-11-19T07:11:21.680Z,40.39
2022-11-19T07:14:00.607Z,40.36
2022-11-19T07:16:31.124Z,40.27
2022-11-19T07:19:00.146Z,40.40
2022-11-19T07:21:29.783Z,40.18
2022-11-19T07:23:58.304Z,40.14
2022-11-19T07:26:27.309Z,40.32
2022-11-19T07:29:00.505Z,40.37
2022-11-19T07:31:31.950Z,40.28
2022-11-19T07:34:00.206Z,40.12
2022-11-19T07:36:28.288Z,40.29
2022-11-19T07:38:56.346Z,40.20
2022-11-19T07:41:42.078Z,40.15
2022-11-19T07:44:14.115Z,39.87
2022-11-19T07:46:43.474Z,40.30
2022-11-19T07:49:11.511Z,40.25
2022-11-19T07:51:39.547Z,40.38
2022-11-19T07:54:09.350Z,40.33
2022-11-19T07:56:37.401Z,40.22
2022-11-19T07:59:05.648Z,40.27
2022-11-19T08:01:35.627Z,40.20
2022-11-19T08:04:05.401Z,40.19
2022-11-19T08:06:34.824Z,40.05
2022-11-19T08:09:04.039Z,40.04
2022-11-19T08:11:32.793Z,40.24
2022-11-19T08:14:02.243Z,40.23
2022-11-19T08:16:47.876Z,40.25
2022-11-19T08:19:18.867Z,40.23
2022-11-19T08:21:48.515Z,40.33
2022-11-19T08:24:19.679Z,40.23
2022-11-19T08:26:49.084Z,40.09
2022-11-19T08:29:20.159Z,40.19
2022-11-19T08:31:49.299Z,40.19
2022-11-19T08:34:20.719Z,40.14
2022-11-19T08:36:48.982Z,40.11
2022-11-19T08:39:17.117Z,40.12
2022-11-19T08:42:02.774Z,40.16
2022-11-19T08:44:31.042Z,40.15
2022-11-19T08:46:59.076Z,40.10
2022-11-19T08:49:28.897Z,40.34
2022-11-19T08:51:57.641Z,40.09
2022-11-19T08:54:26.366Z,40.17
2022-11-19T08:56:54.467Z,40.13
2022-11-19T08:59:22.674Z,40.12
2022-11-19T09:01:51.125Z,40.13
2022-11-19T09:04:19.392Z,40.10
2022-11-19T09:06:49.138Z,40.06
2022-11-19T09:09:17.082Z,40.20
2022-11-19T09:11:45.024Z,40.19
2022-11-19T09:14:12.991Z,40.07
2022-11-19T09:16:40.952Z,40.28
2022-11-19T09:19:08.946Z,40.17
2022-11-19T09:21:37.571Z,40.25
2022-11-19T09:24:07.811Z,40.15
2022-11-19T09:26:36.495Z,39.93
2022-11-19T09:29:04.426Z,40.18
2022-11-19T09:31:32.334Z,40.14
2022-11-19T09:34:00.430Z,40.16
2022-11-19T09:36:28.383Z,40.06
2022-11-19T09:38:59.225Z,39.90
2022-11-19T09:41:44.800Z,39.77
2022-11-19T09:44:33.249Z,39.93
2022-11-19T09:47:13.972Z,39.92
2022-11-19T09:49:48.427Z,40.01
2022-11-19T09:52:19.688Z,40.17
2022-11-19T09:54:50.819Z,40.13
2022-11-19T09:57:30.969Z,39.96
2022-11-19T10:00:01.656Z,40.14
2022-11-19T10:02:30.763Z,40.19
2022-11-19T10:05:00.975Z,40.02
2022-11-19T10:07:39.674Z,40.08
2022-11-19T10:10:25.255Z,39.79
2022-11-19T10:13:12.815Z,39.96
2022-11-19T10:15:52.784Z,40.03
2022-11-19T10:18:30.796Z,40.00
2022-11-19T10:21:07.215Z,40.12
2022-11-19T10:23:52.942Z,39.57
2022-11-19T10:26:31.915Z,39.95
2022-11-19T10:29:03.321Z,39.91
2022-11-19T10:31:36.439Z,40.03
2022-11-19T10:34:12.050Z,40.08
2022-11-19T10:36:43.859Z,40.13
2022-11-19T10:39:21.929Z,39.95
2022-11-19T10:41:55.801Z,40.06
2022-11-19T10:44:40.230Z,40.01
2022-11-19T10:47:12.022Z,40.06
2022-11-19T10:49:42.249Z,40.13
2022-11-19T10:52:25.862Z,40.02
2022-11-19T10:55:02.013Z,40.12
2022-11-19T10:57:34.116Z,40.28
2022-11-19T11:00:03.918Z,40.04
2022-11-19T11:02:42.535Z,40.06
2022-11-19T11:05:13.937Z,40.07
2022-11-19T11:07:53.854Z,39.64
2022-11-19T11:10:35.023Z,39.97
2022-11-19T11:13:35.420Z,39.67
2022-11-19T11:16:11.342Z,39.81
2022-11-19T11:18:40.880Z,40.03
2022-11-19T11:21:13.766Z,40.10
2022-11-19T11:23:51.569Z,39.75
2022-11-19T11:26:23.037Z,39.92
2022-11-19T11:29:00.671Z,39.75
2022-11-19T11:31:38.996Z,39.79
2022-11-19T11:34:08.785Z,40.09
2022-11-19T11:36:38.376Z,40.02
2022-11-19T11:39:07.326Z,40.04
2022-11-19T11:42:05.420Z,39.94
2022-11-19T11:44:29.210Z,40.21
2022-11-19T11:47:01.743Z,39.96
2022-11-19T11:49:35.037Z,40.03
2022-11-19T11:52:14.554Z,39.97
2022-11-19T11:54:56.436Z,39.71
2022-11-19T11:57:26.374Z,40.22
2022-11-19T11:59:54.827Z,40.10
2022-11-19T12:02:30.414Z,40.03
2022-11-19T12:05:01.600Z,40.02
2022-11-19T12:07:48.109Z,39.81
2022-11-19T12:10:26.675Z,39.79
2022-11-19T12:13:11.082Z,40.03
2022-11-19T12:15:48.227Z,39.94
2022-11-19T12:18:29.590Z,39.78
2022-11-19T12:21:11.445Z,39.90
2022-11-19T12:23:59.873Z,39.54
2022-11-19T12:26:37.431Z,39.86
2022-11-19T12:29:16.266Z,39.54
2022-11-19T12:32:00.896Z,39.69
2022-11-19T12:34:52.658Z,39.41
2022-11-19T12:37:39.877Z,39.76
2022-11-19T12:40:21.603Z,39.74
2022-11-19T12:42:57.760Z,39.96
2022-11-19T12:45:36.840Z,39.92
2022-11-19T12:48:32.751Z,39.57
2022-11-19T12:51:13.181Z,39.77
2022-11-19T12:53:58.275Z,39.66
2022-11-19T12:56:37.892Z,39.84
2022-11-19T12:59:21.988Z,39.79
2022-11-19T13:01:54.165Z,39.93
2022-11-19T13:04:27.683Z,40.07
2022-11-19T13:07:01.402Z,39.84
2022-11-19T13:09:38.740Z,39.66
2022-11-19T13:12:10.642Z,39.90
2022-11-19T13:14:42.381Z,39.84
2022-11-19T13:17:19.248Z,39.90
2022-11-19T13:19:52.549Z,39.87
2022-11-19T13:22:27.268Z,39.75
2022-11-19T13:25:00.222Z,39.87
2022-11-19T13:27:31.297Z,39.93
2022-11-19T13:30:02.955Z,40.03
2022-11-19T13:32:36.316Z,39.90
2022-11-19T13:35:14.911Z,39.67
2022-11-19T13:37:58.020Z,39.74
2022-11-19T13:40:32.001Z,39.65
2022-11-19T13:43:31.658Z,39.78
2022-11-19T13:46:10.185Z,39.64
2022-11-19T13:48:41.568Z,39.76
2022-11-19T13:51:22.001Z,39.83
2022-11-19T13:53:51.641Z,39.92
2022-11-19T13:56:21.695Z,39.78
2022-11-19T13:58:52.619Z,39.91
2022-11-19T14:01:48.551Z,39.19
2022-11-19T14:04:33.804Z,39.77
2022-11-19T14:07:31.236Z,39.23
2022-11-19T14:10:09.229Z,39.85
2022-11-19T14:12:52.672Z,39.67
2022-11-19T14:16:09.157Z,39.41
2022-11-19T14:18:58.266Z,39.87
2022-11-19T14:22:06.276Z,39.04
2022-11-19T14:25:28.036Z,39.04
2022-11-19T14:27:55.944Z,39.69
2022-11-19T14:31:02.610Z,39.22
2022-11-19T14:33:58.838Z,39.16
2022-11-19T14:36:39.339Z,39.63
2022-11-19T14:39:18.016Z,39.54
2022-11-19T14:41:48.072Z,39.77
2022-11-19T14:44:36.048Z,38.94
2022-11-19T14:47:33.579Z,39.08
2022-11-19T14:50:04.198Z,39.73
2022-11-19T14:52:35.426Z,39.86
2022-11-19T14:55:07.155Z,39.75
2022-11-19T14:57:39.830Z,39.66
2022-11-19T15:00:28.804Z,39.22
2022-11-19T15:02:58.103Z,39.83
2022-11-19T15:05:33.272Z,39.89
2022-11-19T15:08:30.505Z,39.52
2022-11-19T15:11:07.794Z,39.83
2022-11-19T15:13:39.310Z,39.96
2022-11-19T15:16:11.194Z,39.92
2022-11-19T15:19:13.858Z,39.90
2022-11-19T15:22:01.351Z,39.99
2022-11-19T15:24:41.603Z,40.07
2022-11-19T15:27:21.479Z,40.01
2022-11-19T15:30:08.132Z,40.17
2022-11-19T15:33:04.156Z,40.00
2022-11-19T15:35:52.439Z,40.21
2022-11-19T15:38:31.138Z,40.07
2022-11-19T15:41:02.615Z,40.12
2022-11-19T15:43:36.103Z,40.19
2022-11-19T15:46:09.957Z,40.03
2022-11-19T15:48:43.827Z,40.14
2022-11-19T15:51:14.908Z,40.09
2022-11-19T15:53:58.879Z,39.85
2022-11-19T15:56:28.633Z,40.06
2022-11-19T15:58:57.294Z,40.14
2022-11-19T16:01:26.920Z,40.06
2022-11-19T16:03:55.493Z,40.00
2022-11-19T16:06:26.339Z,40.04
2022-11-19T16:08:56.107Z,39.90
2022-11-19T16:11:43.940Z,39.98
2022-11-19T16:14:54.182Z,39.75
2022-11-19T16:17:41.726Z,39.99
2022-11-19T16:20:21.918Z,39.73
2022-11-19T16:22:57.585Z,40.03
2022-11-19T16:25:31.405Z,39.84
2022-11-19T16:28:02.553Z,39.93
2022-11-19T16:30:38.767Z,39.92
2022-11-19T16:33:13.375Z,39.88
2022-11-19T16:35:41.325Z,39.90
2022-11-19T16:38:15.740Z,39.91
2022-11-19T16:41:02.848Z,39.80
2022-11-19T16:43:31.163Z,39.91
2022-11-19T16:45:59.733Z,39.86
2022-11-19T16:48:57.146Z,39.32
2022-11-19T16:51:52.258Z,39.22
2022-11-19T16:54:45.593Z,39.25
2022-11-19T16:57:16.474Z,39.80
2022-11-19T16:59:48.452Z,39.81
2022-11-19T17:02:18.979Z,39.83
2022-11-19T17:04:49.358Z,39.76
2022-11-19T17:07:25.748Z,39.80
2022-11-19T17:10:10.523Z,39.36
2022-11-19T17:12:39.339Z,39.81
2022-11-19T17:15:37.248Z,39.27
2022-11-19T17:18:15.959Z,39.77
2022-11-19T17:20:51.752Z,39.58
2022-11-19T17:23:23.145Z,39.73
2022-11-19T17:25:53.896Z,39.83
2022-11-19T17:28:26.682Z,39.79
2022-11-19T17:30:56.444Z,39.70
2022-11-19T17:33:25.080Z,39.79
2022-11-19T17:35:53.207Z,39.88
2022-11-19T17:38:25.086Z,39.60
2022-11-19T17:40:56.557Z,39.69
2022-11-19T17:43:44.440Z,39.75
2022-11-19T17:46:12.422Z,39.61
2022-11-19T17:48:42.529Z,39.72
2022-11-19T17:51:12.803Z,39.72
2022-11-19T17:53:42.800Z,39.66
2022-11-19T17:56:18.022Z,39.61
2022-11-19T17:58:45.999Z,39.79
2022-11-19T18:01:14.572Z,39.80
2022-11-19T18:03:42.612Z,39.79
2022-11-19T18:06:13.099Z,39.74
2022-11-19T18:08:43.019Z,39.74
2022-11-19T18:11:13.282Z,39.77
2022-11-19T18:13:42.441Z,39.60
2022-11-19T18:16:15.015Z,39.78
2022-11-19T18:18:43.278Z,39.68
2022-11-19T18:21:13.028Z,39.77
2022-11-19T18:23:42.909Z,39.80
2022-11-19T18:26:11.763Z,39.83
2022-11-19T18:28:41.625Z,39.83
2022-11-19T18:31:16.474Z,39.65
2022-11-19T18:33:45.403Z,39.64
2022-11-19T18:36:13.367Z,39.70
2022-11-19T18:38:42.727Z,39.81
2022-11-19T18:41:13.121Z,39.77
2022-11-19T18:43:58.800Z,39.71
2022-11-19T18:46:27.258Z,39.71
2022-11-19T18:48:55.217Z,39.74
2022-11-19T18:51:24.746Z,39.52
2022-11-19T18:53:54.034Z,39.67
2022-11-19T18:56:21.911Z,39.73
2022-11-19T18:58:50.025Z,39.63
2022-11-19T19:01:18.134Z,39.66
2022-11-19T19:03:46.175Z,39.63
2022-11-19T19:06:14.131Z,39.73
2022-11-19T19:08:42.042Z,39.57
2022-11-19T19:11:29.799Z,39.63
2022-11-19T19:13:57.778Z,39.57
2022-11-19T19:16:26.223Z,39.69
2022-11-19T19:18:54.148Z,39.68
2022-11-19T19:21:23.603Z,39.88
2022-11-19T19:23:51.804Z,39.49
2022-11-19T19:26:21.784Z,39.65
2022-11-19T19:28:51.552Z,39.71
2022-11-19T19:31:19.532Z,39.65
2022-11-19T19:33:48.004Z,39.63
2022-11-19T19:36:17.051Z,39.58
2022-11-19T19:38:45.145Z,39.66
2022-11-19T19:41:15.849Z,39.63
2022-11-19T19:43:45.256Z,39.71
2022-11-19T19:46:16.233Z,39.71
2022-11-19T19:48:44.450Z,39.53
2022-11-19T19:51:13.490Z,39.55
2022-11-19T19:53:42.084Z,39.54
2022-11-19T19:56:13.284Z,39.52
2022-11-19T19:58:43.637Z,39.66
2022-11-19T20:01:15.109Z,39.60
2022-11-19T20:03:43.525Z,39.52
2022-11-19T20:06:13.546Z,39.62
2022-11-19T20:08:42.426Z,39.66
2022-11-19T20:11:12.258Z,39.62
2022-11-19T20:13:40.898Z,39.53
2022-11-19T20:16:17.303Z,39.66
2022-11-19T20:18:48.883Z,39.48
2022-11-19T20:21:19.170Z,39.46
2022-11-19T20:23:47.588Z,39.65
2022-11-19T20:26:17.448Z,39.62
2022-11-19T20:28:45.454Z,39.43
2022-11-19T20:31:15.828Z,39.64
2022-11-19T20:33:45.163Z,39.62
2022-11-19T20:36:16.787Z,39.48
2022-11-19T20:38:46.181Z,39.62
2022-11-19T20:41:29.690Z,39.66
2022-11-19T20:44:15.455Z,39.63
2022-11-19T20:46:44.042Z,39.50
2022-11-19T20:49:16.948Z,39.66
2022-11-19T20:51:47.470Z,39.56
2022-11-19T20:54:15.738Z,39.59
2022-11-19T20:56:43.913Z,39.67
2022-11-19T20:59:13.592Z,39.62
2022-11-19T21:01:42.721Z,39.47
2022-11-19T21:04:12.199Z,39.53
2022-11-19T21:06:40.758Z,39.64
2022-11-19T21:09:10.499Z,39.54
2022-11-19T21:11:38.540Z,39.48
2022-11-19T21:14:06.441Z,39.57
2022-11-19T21:16:34.410Z,39.56
2022-11-19T21:19:02.502Z,39.64
2022-11-19T21:21:30.492Z,39.50
2022-11-19T21:23:58.391Z,39.47
2022-11-19T21:26:29.210Z,39.58
2022-11-19T21:28:58.707Z,39.58
2022-11-19T21:31:38.317Z,39.66
2022-11-19T21:34:07.713Z,39.60
2022-11-19T21:36:36.006Z,39.62
2022-11-19T21:39:04.239Z,39.63
2022-11-19T21:41:34.048Z,39.59
2022-11-19T21:44:02.628Z,39.42
2022-11-19T21:46:30.636Z,39.46
2022-11-19T21:48:58.776Z,39.47
2022-11-19T21:51:26.738Z,39.49
2022-11-19T21:53:56.114Z,39.54
2022-11-19T21:56:24.336Z,39.65
2022-11-19T21:58:53.637Z,39.58
2022-11-19T22:01:21.899Z,39.58
2022-11-19T22:03:49.862Z,39.55
2022-11-19T22:06:17.802Z,39.62
2022-11-19T22:08:45.769Z,39.57
2022-11-19T22:11:32.526Z,39.51
2022-11-19T22:14:03.821Z,39.46
2022-11-19T22:16:34.248Z,39.48
2022-11-19T22:19:02.722Z,39.31
2022-11-19T22:21:31.940Z,39.43
2022-11-19T22:24:00.032Z,39.49
2022-11-19T22:26:28.152Z,39.51
2022-11-19T22:28:56.339Z,39.43
2022-11-19T22:31:26.718Z,39.56
2022-11-19T22:33:55.500Z,39.54
2022-11-19T22:36:24.688Z,39.60
2022-11-19T22:38:53.522Z,39.64
2022-11-19T22:41:22.470Z,39.41
2022-11-19T22:43:50.936Z,39.54
2022-11-19T22:46:19.822Z,39.49
2022-11-19T22:48:49.320Z,39.54
2022-11-19T22:51:20.148Z,39.39
2022-11-19T22:53:48.308Z,39.41
2022-11-19T22:56:18.175Z,39.46
2022-11-19T22:58:46.734Z,39.46
2022-11-19T23:01:17.702Z,39.51
2022-11-19T23:03:46.014Z,39.54
2022-11-19T23:06:16.003Z,39.39
2022-11-19T23:08:44.391Z,39.09
2022-11-19T23:11:13.425Z,39.39
2022-11-19T23:13:41.867Z,39.41
2022-11-19T23:16:12.566Z,39.42
2022-11-19T23:18:42.810Z,39.38
2022-11-19T23:21:12.640Z,39.49
2022-11-19T23:23:42.016Z,39.41
2022-11-19T23:26:13.822Z,39.37
2022-11-19T23:28:44.800Z,39.48
2022-11-19T23:31:16.988Z,39.25
2022-11-19T23:33:45.827Z,39.35
2022-11-19T23:36:15.620Z,39.48
2022-11-19T23:38:45.339Z,39.50
2022-11-19T23:41:15.331Z,39.39
2022-11-19T23:43:43.610Z,39.46
2022-11-19T23:46:13.630Z,39.41
2022-11-19T23:48:43.385Z,39.32
2022-11-19T23:51:13.686Z,39.37
2022-11-19T23:53:41.987Z,39.35
2022-11-19T23:56:12.342Z,39.47
2022-11-19T23:58:40.478Z,39.44
